»·PEaware :: N64JD KVCV-KIFP

N64JD :: KVCV-KIFP

FLIGHT INFORMATION

Flight Status: Arrived
Operator: Privately registered:
United States
More flights under this callsign
Pilot: Alfred D. (6795)
Aircraft: SIKORSKY S-61A/B/D/L/N SEA-KING
(S61)
More flights by this aircraft type
Origin: KVCV Socal Logistics
United States
Destination: KIFP Laughlin/Bullhead Intl
United States
More flights between these airports :: More routes between these airports
Route:
File this flight plan on PilotEdge
Remarks:
Altitude:
(Current/Filed)
0ft
Speed:
(Current/Filed)
0kts
Departed: 21-Oct-22 03:54 PM
Arrived: 21-Oct-22 05:10 PM
Distance/Time
Traveled:
143nm/1:16
Distance/Time
To Go:
Arrived

Flight Plot

Page will automatically refresh every two minutes.

Flight plan parsing failed; only flown route is shown


Map Options




Map Legend


Flown Route
Filed Route
Departure Airport
Arrival Airport
Navaid (VOR, NDB)
Fix

Horizontal Profiles

Position Reports

Time Latitude Longitude Heading Altitude Ground
Speed
21-Oct-22 15:50 34.600595 -117.363891 230 2844ft 0kts
21-Oct-22 15:51 34.600595 -117.363891 230 2844ft 0kts
21-Oct-22 15:52 34.600595 -117.363891 230 2844ft 0kts
21-Oct-22 15:53 34.601635 -117.362768 23 2922ft 59kts
21-Oct-22 15:54 34.616027 -117.360362 17 3121ft 133kts
21-Oct-22 15:55 34.655009 -117.360208 0 3496ft 144kts
21-Oct-22 15:56 34.695581 -117.354349 40 4657ft 148kts
21-Oct-22 15:57 34.697961 -117.304643 83 5952ft 153kts
21-Oct-22 15:58 34.698636 -117.269545 84 5995ft 160kts
21-Oct-22 15:59 34.701849 -117.234636 74 5972ft 155kts
21-Oct-22 16:00 34.709699 -117.183783 81 6034ft 154kts
21-Oct-22 16:01 34.717044 -117.130977 82 5574ft 156kts
21-Oct-22 16:02 34.720926 -117.080800 64 6035ft 139kts
21-Oct-22 16:03 34.741718 -117.043750 94 6597ft 133kts
21-Oct-22 16:04 34.740959 -117.000720 88 7609ft 143kts
21-Oct-22 16:05 34.745750 -116.952131 81 7722ft 155kts
21-Oct-22 16:06 34.743065 -116.899268 100 7354ft 153kts
21-Oct-22 16:07 34.734831 -116.853920 58 8114ft 145kts
21-Oct-22 16:08 34.757079 -116.808882 70 7882ft 155kts
21-Oct-22 16:09 34.762276 -116.757881 86 8095ft 144kts
21-Oct-22 16:10 34.766344 -116.713459 83 9381ft 129kts
21-Oct-22 16:11 34.771334 -116.658314 81 7068ft 162kts
21-Oct-22 16:12 34.776741 -116.605933 86 6108ft 136kts
21-Oct-22 16:13 34.781647 -116.561354 81 6110ft 128kts
21-Oct-22 16:14 34.790030 -116.516979 97 5593ft 135kts
21-Oct-22 16:15 34.789305 -116.476663 73 6184ft 121kts
21-Oct-22 16:16 34.791826 -116.435769 89 7148ft 132kts
21-Oct-22 16:17 34.789486 -116.388035 94 7573ft 150kts
21-Oct-22 16:18 34.785412 -116.337799 87 7563ft 158kts
21-Oct-22 16:19 34.789346 -116.287140 74 7606ft 143kts
21-Oct-22 16:20 34.796305 -116.238777 85 7691ft 153kts
21-Oct-22 16:21 34.799991 -116.188260 80 7698ft 144kts
21-Oct-22 16:22 34.803267 -116.162368 81 7640ft 150kts
21-Oct-22 16:23 34.804498 -116.139866 94 7527ft 141kts
21-Oct-22 16:24 34.804401 -116.133238 94 7550ft 138kts
21-Oct-22 16:25 34.802698 -116.102452 99 7969ft 138kts
21-Oct-22 16:26 34.802698 -116.102452 99 7969ft 138kts
21-Oct-22 16:27 34.802698 -116.102452 99 7969ft 138kts
21-Oct-22 16:28 34.802074 -116.096761 100 8030ft 139kts
21-Oct-22 16:29 34.797196 -116.047859 93 7670ft 165kts
21-Oct-22 16:30 34.795008 -115.998071 97 7471ft 137kts
21-Oct-22 16:31 34.795772 -115.953754 86 7986ft 133kts
21-Oct-22 16:32 34.794946 -115.905442 94 7708ft 143kts
21-Oct-22 16:33 34.790812 -115.859510 99 8011ft 137kts
21-Oct-22 16:34 34.786268 -115.810964 96 7829ft 127kts
21-Oct-22 16:35 34.783824 -115.763140 94 7626ft 138kts
21-Oct-22 16:36 34.782190 -115.716068 81 7687ft 143kts
21-Oct-22 16:37 34.783805 -115.669250 97 7608ft 139kts
21-Oct-22 16:38 34.781700 -115.652656 100 7644ft 142kts
21-Oct-22 16:39 34.780037 -115.604379 90 7643ft 150kts
21-Oct-22 16:40 34.774835 -115.549423 97 4436ft 170kts
21-Oct-22 16:41 34.770829 -115.497273 95 3129ft 142kts
21-Oct-22 16:42 34.776744 -115.450663 68 2517ft 152kts
21-Oct-22 16:43 34.794849 -115.402769 77 2423ft 157kts
21-Oct-22 16:44 34.788522 -115.353350 99 2846ft 166kts
21-Oct-22 16:45 34.801931 -115.304551 85 2152ft 167kts
21-Oct-22 16:46 34.806716 -115.250344 88 2093ft 164kts
21-Oct-22 16:47 34.812683 -115.196085 82 2361ft 158kts
21-Oct-22 16:48 34.818918 -115.141168 78 2570ft 166kts
21-Oct-22 16:49 34.825476 -115.090668 86 2853ft 184kts
21-Oct-22 16:50 34.829538 -115.031697 90 2892ft 174kts
21-Oct-22 16:51 34.843770 -114.974852 74 2564ft 169kts
21-Oct-22 16:52 34.852773 -114.923182 86 3835ft 151kts
21-Oct-22 16:53 34.849572 -114.871338 89 4591ft 154kts
21-Oct-22 16:54 34.852231 -114.820268 92 5366ft 156kts
21-Oct-22 16:55 34.863622 -114.773005 74 5022ft 154kts
21-Oct-22 16:56 34.876703 -114.723068 69 3001ft 144kts
21-Oct-22 16:57 34.888918 -114.681215 65 2426ft 123kts
21-Oct-22 16:58 34.903052 -114.643020 68 2275ft 123kts
21-Oct-22 16:59 34.915677 -114.606788 75 2833ft 131kts
21-Oct-22 17:00 34.932786 -114.564518 33 1931ft 130kts
21-Oct-22 17:01 34.964956 -114.555989 19 1608ft 113kts
21-Oct-22 17:02 34.995644 -114.549258 16 1577ft 115kts
21-Oct-22 17:03 35.030033 -114.545416 359 1247ft 123kts
21-Oct-22 17:04 35.062932 -114.546979 358 1441ft 116kts
21-Oct-22 17:05 35.094500 -114.549675 352 1472ft 87kts
21-Oct-22 17:06 35.114723 -114.554043 359 1464ft 44kts
21-Oct-22 17:07 35.127131 -114.553892 358 1353ft 67kts
21-Oct-22 17:08 35.147467 -114.555743 1 935ft 48kts
21-Oct-22 17:09 35.156833 -114.556342 1 798ft 30kts
21-Oct-22 17:10 35.159863 -114.556184 300 758ft 1kts
21-Oct-22 17:11 35.159957 -114.556224 268 708ft 0kts
21-Oct-22 17:12 35.159957 -114.556224 268 708ft 0kts
21-Oct-22 17:13 35.159957 -114.556224 268 708ft 0kts

Navigation Log

Ident Type
Flight plan parsing failed, navigation log unavailable